Time;durP1;ratioP1;P1;durP2;ratioP2;P2;SDS_P1;SDS_P2;PMS_P1;PMS_P2;Temp;Humidity;BMP_temperature;BMP_pressure;BME280_temperature;BME280_humidity;BME280_pressure;Samples;Min_cycle;Max_cycle;Signal;HPM_P1;HPM_P2
2023/04/20 00:02:16;;;;;;;11.73;6.93;;;;;;;14.00;100.00;100444.31;5055925;28;20052;-80
2023/04/20 00:04:44;;;;;;;12.13;6.78;;;;;;;13.79;100.00;100440.03;5073415;28;20055;-80
2023/04/20 00:07:12;;;;;;;14.05;7.78;;;;;;;13.80;100.00;100438.09;5055805;28;20052;-80
2023/04/20 00:09:39;;;;;;;13.52;7.90;;;;;;;13.78;100.00;100437.59;5073443;28;20060;-79
2023/04/20 00:12:07;;;;;;;13.80;9.80;;;;;;;13.63;100.00;100428.50;5055760;28;20056;-79
2023/04/20 00:14:35;;;;;;;12.82;8.73;;;;;;;13.81;100.00;100429.56;5072996;28;20055;-79
2023/04/20 00:17:04;;;;;;;13.07;9.50;;;;;;;13.81;100.00;100420.47;5073426;28;20036;-79
2023/04/20 00:19:32;;;;;;;18.25;9.88;;;;;;;13.72;100.00;100420.38;5073335;28;20052;-79
2023/04/20 00:22:00;;;;;;;14.13;10.13;;;;;;;13.62;100.00;100426.88;5073319;28;20046;-80
2023/04/20 00:24:28;;;;;;;16.95;9.95;;;;;;;13.57;100.00;100426.97;5073050;28;20040;-80
2023/04/20 00:26:56;;;;;;;13.82;9.88;;;;;;;13.49;100.00;100427.69;5073163;28;20052;-80
2023/04/20 00:29:24;;;;;;;19.45;9.77;;;;;;;13.45;100.00;100430.22;5073277;28;20043;-80
2023/04/20 00:31:51;;;;;;;12.52;8.15;;;;;;;13.21;100.00;100427.59;5073260;28;20055;-79
2023/04/20 00:34:19;;;;;;;13.70;8.57;;;;;;;13.33;100.00;100433.44;5073110;28;20052;-80
2023/04/20 00:36:47;;;;;;;11.50;8.38;;;;;;;13.39;100.00;100436.91;5073319;28;20132;-80
2023/04/20 00:39:16;;;;;;;13.13;8.35;;;;;;;13.44;100.00;100440.38;5072990;28;20045;-80
2023/04/20 00:41:44;;;;;;;12.18;8.15;;;;;;;13.52;100.00;100454.56;5073012;28;20052;-80
2023/04/20 00:44:12;;;;;;;14.45;8.55;;;;;;;13.54;100.00;100466.09;5072957;28;20052;-80
2023/04/20 00:46:41;;;;;;;11.88;6.88;;;;;;;13.74;100.00;100458.56;5072804;28;20394;-79
2023/04/20 00:49:10;;;;;;;14.30;8.48;;;;;;;13.68;100.00;100472.41;5072853;28;20048;-80
2023/04/20 00:51:38;;;;;;;11.70;7.22;;;;;;;13.55;100.00;100468.50;5054988;28;20401;-80
2023/04/20 00:54:06;;;;;;;11.07;6.68;;;;;;;13.63;100.00;100469.75;5072681;28;20052;-80
2023/04/20 00:56:34;;;;;;;10.60;7.13;;;;;;;13.84;100.00;100485.88;5072600;28;20040;-80
2023/04/20 00:59:02;;;;;;;9.50;6.57;;;;;;;13.44;100.00;100456.03;5054820;28;20040;-80
2023/04/20 01:01:30;;;;;;;12.13;6.53;;;;;;;13.64;100.00;100460.38;5072601;28;20040;-80
2023/04/20 01:03:58;;;;;;;11.13;6.80;;;;;;;13.76;100.00;100454.41;5072437;28;20089;-80
2023/04/20 01:06:29;;;;;;;13.18;6.65;;;;;;;13.63;100.00;100447.75;5054880;28;20406;-80
2023/04/20 01:08:57;;;;;;;12.07;6.32;;;;;;;13.60;100.00;100453.06;5072398;28;20052;-80
2023/04/20 01:11:25;;;;;;;10.85;6.75;;;;;;;13.49;100.00;100452.44;5054558;28;20074;-80
2023/04/20 01:13:53;;;;;;;10.02;6.13;;;;;;;13.43;100.00;100433.25;5053946;28;20055;-80
2023/04/20 01:16:21;;;;;;;10.68;6.03;;;;;;;13.43;100.00;100430.50;5071671;28;20043;-80
2023/04/20 01:18:50;;;;;;;10.23;5.68;;;;;;;13.46;100.00;100428.25;5072003;28;20049;-80
2023/04/20 01:21:22;;;;;;;10.30;6.28;;;;;;;13.21;100.00;100409.19;5037790;28;20047;-80
2023/04/20 01:23:52;;;;;;;11.75;6.00;;;;;;;13.11;100.00;100409.38;5072023;28;20059;-80
2023/04/20 01:26:22;;;;;;;9.23;5.95;;;;;;;13.21;100.00;100395.47;5053008;28;20481;-80
2023/04/20 01:28:50;;;;;;;8.85;5.50;;;;;;;13.22;100.00;100393.50;5070525;28;20055;-80
2023/04/20 01:31:19;;;;;;;7.35;5.95;;;;;;;13.10;100.00;100394.00;5053933;28;20048;-80
2023/04/20 01:33:47;;;;;;;9.13;5.97;;;;;;;12.88;100.00;100379.81;5071660;28;20044;-81
2023/04/20 01:36:15;;;;;;;10.55;5.90;;;;;;;12.95;100.00;100381.34;5071124;28;20490;-81
2023/04/20 01:38:44;;;;;;;10.23;5.72;;;;;;;13.02;100.00;100384.50;5054009;28;20036;-80
2023/04/20 01:41:12;;;;;;;8.38;5.97;;;;;;;13.13;100.00;100380.47;5054327;28;20047;-80
2023/04/20 01:43:40;;;;;;;11.68;6.38;;;;;;;13.12;100.00;100383.53;5071591;28;20048;-80
2023/04/20 01:46:08;;;;;;;10.30;5.90;;;;;;;13.22;100.00;100393.50;5071493;28;20059;-79
2023/04/20 01:48:36;;;;;;;8.75;5.95;;;;;;;13.23;100.00;100389.63;5071630;28;20064;-80
2023/04/20 01:51:04;;;;;;;8.82;6.10;;;;;;;13.39;100.00;100399.22;5071778;28;20399;-79
2023/04/20 01:53:32;;;;;;;9.05;6.22;;;;;;;13.50;100.00;100399.09;5054053;28;20048;-79
2023/04/20 01:56:00;;;;;;;10.27;6.10;;;;;;;13.49;100.00;100405.69;5077472;28;20536;-80
2023/04/20 01:58:28;;;;;;;9.48;6.25;;;;;;;13.53;100.00;100401.22;5071802;28;20483;-80
2023/04/20 02:00:55;;;;;;;13.07;6.65;;;;;;;13.69;100.00;100393.50;5036822;28;20037;-79
2023/04/20 02:03:23;;;;;;;9.85;6.70;;;;;;;13.76;100.00;100407.66;5071876;28;20037;-80
2023/04/20 02:05:53;;;;;;;11.90;7.13;;;;;;;13.78;100.00;100404.59;5038355;28;20044;-80
2023/04/20 02:08:21;;;;;;;11.00;7.50;;;;;;;13.67;100.00;100410.28;5053948;28;20406;-80
2023/04/20 02:10:49;;;;;;;12.60;7.45;;;;;;;13.69;100.00;100415.50;5071209;28;20045;-79
2023/04/20 02:13:17;;;;;;;11.80;7.63;;;;;;;13.62;100.00;100406.81;5053883;28;20040;-80
2023/04/20 02:15:45;;;;;;;9.98;7.63;;;;;;;13.69;100.00;100405.28;5037169;28;20161;-80
2023/04/20 02:18:14;;;;;;;15.60;7.47;;;;;;;13.72;100.00;100411.31;5071652;28;20040;-79
2023/04/20 02:20:43;;;;;;;10.73;7.28;;;;;;;13.74;100.00;100400.81;5071597;28;20112;-79
2023/04/20 02:23:11;;;;;;;11.65;7.50;;;;;;;13.58;100.00;100403.84;5071539;28;20414;-80
2023/04/20 02:25:39;;;;;;;13.75;7.85;;;;;;;13.57;100.00;100391.25;5037141;28;20053;-80
2023/04/20 02:28:07;;;;;;;10.77;7.28;;;;;;;13.47;100.00;100400.50;5071471;28;20253;-80
2023/04/20 02:30:38;;;;;;;11.40;7.40;;;;;;;13.37;100.00;100390.50;5071687;28;20056;-80
2023/04/20 02:33:06;;;;;;;11.52;7.43;;;;;;;13.36;100.00;100393.53;5071598;28;20061;-80
2023/04/20 02:35:34;;;;;;;11.90;7.25;;;;;;;13.21;100.00;100400.13;5053531;28;20064;-80
2023/04/20 02:38:03;;;;;;;11.55;6.97;;;;;;;13.16;100.00;100396.34;5074377;28;20052;-80
2023/04/20 02:40:31;;;;;;;10.13;6.53;;;;;;;13.09;100.00;100398.66;5075276;28;20051;-79
2023/04/20 02:42:59;;;;;;;12.18;7.00;;;;;;;13.15;100.00;100393.91;5075279;28;20398;-80
2023/04/20 02:45:29;;;;;;;9.23;6.47;;;;;;;13.24;100.00;100394.84;5057082;28;20060;-80
2023/04/20 02:47:57;;;;;;;10.18;6.78;;;;;;;13.28;100.00;100395.03;5057206;28;20047;-80
2023/04/20 02:50:29;;;;;;;8.52;6.15;;;;;;;13.15;100.00;100389.22;5057250;28;20044;-80
2023/04/20 02:53:23;;;;;;;13.23;7.05;;;;;;;13.31;100.00;100383.47;5072895;28;20071;-80
2023/04/20 02:56:08;;;;;;;9.35;6.18;;;;;;;13.25;100.00;100393.72;5057181;28;20596;-79
2023/04/20 02:58:42;;;;;;;11.00;6.18;;;;;;;13.35;100.00;100369.91;5057254;28;20478;-80
2023/04/20 03:01:30;;;;;;;8.23;5.60;;;;;;;13.30;100.00;100387.34;5045975;28;20048;-80
2023/04/20 03:04:12;;;;;;;9.52;5.82;;;;;;;13.06;100.00;100385.56;5056742;28;20037;-80
2023/04/20 03:06:54;;;;;;;8.98;6.30;;;;;;;13.21;100.00;100384.47;5056944;28;20040;-80
2023/04/20 03:09:29;;;;;;;10.65;5.85;;;;;;;13.27;100.00;100387.91;5056792;28;20040;-80
2023/04/20 03:12:07;;;;;;;8.82;6.03;;;;;;;13.30;100.00;100379.88;5056615;28;20466;-79
2023/04/20 03:14:54;;;;;;;9.15;5.43;;;;;;;13.28;100.00;100382.13;5074496;28;20044;-80
2023/04/20 03:17:30;;;;;;;8.55;5.75;;;;;;;13.32;100.00;100393.31;5056640;28;20509;-80
2023/04/20 03:19:57;;;;;;;8.52;5.82;;;;;;;13.43;100.00;100369.19;5040312;28;20048;-79
2023/04/20 03:22:25;;;;;;;11.25;6.30;;;;;;;13.41;100.00;100368.69;5056650;28;20049;-79
2023/04/20 03:24:57;;;;;;;7.57;5.68;;;;;;;13.32;100.00;100360.34;5040344;28;20051;-79
2023/04/20 03:27:46;;;;;;;11.68;5.97;;;;;;;13.27;100.00;100369.50;5073734;28;20611;-79
2023/04/20 03:30:15;;;;;;;9.65;5.78;;;;;;;13.30;100.00;100381.84;5039453;28;20052;-79
2023/04/20 03:32:46;;;;;;;7.80;5.38;;;;;;;13.37;100.00;100378.66;5056059;28;20047;-79
2023/04/20 03:35:16;;;;;;;8.45;5.70;;;;;;;13.33;100.00;100364.72;5056155;28;20052;-79
2023/04/20 03:37:44;;;;;;;8.07;5.57;;;;;;;13.42;100.00;100370.31;5056179;28;20044;-79
2023/04/20 03:40:12;;;;;;;7.82;5.50;;;;;;;13.44;100.00;100374.41;5074027;28;20478;-79
2023/04/20 03:42:40;;;;;;;8.65;5.70;;;;;;;13.54;100.00;100378.13;5074100;28;20048;-79
2023/04/20 03:45:09;;;;;;;11.63;5.78;;;;;;;13.50;100.00;100366.09;5073739;28;20071;-79
2023/04/20 03:47:37;;;;;;;7.55;5.25;;;;;;;13.56;100.00;100375.88;5056260;28;20041;-79
2023/04/20 03:50:05;;;;;;;8.18;5.53;;;;;;;13.54;100.00;100351.44;5055343;28;20472;-79
2023/04/20 03:52:33;;;;;;;8.52;6.07;;;;;;;13.52;100.00;100377.59;5055733;28;20049;-79
2023/04/20 03:55:05;;;;;;;13.85;7.35;;;;;;;13.40;100.00;100362.38;5073669;28;20403;-79
2023/04/20 03:57:34;;;;;;;10.27;6.45;;;;;;;13.59;100.00;100371.69;5039480;28;20043;-79
2023/04/20 04:00:04;;;;;;;10.25;6.00;;;;;;;13.60;100.00;100368.66;5055817;28;20059;-79
2023/04/20 04:02:45;;;;;;;10.10;6.78;;;;;;;13.66;100.00;100374.84;5073688;28;20375;-79
2023/04/20 04:05:17;;;;;;;10.93;6.57;;;;;;;13.69;100.00;100369.53;5055446;28;20043;-79
2023/04/20 04:07:45;;;;;;;9.63;6.70;;;;;;;13.59;100.00;100369.75;5073455;28;20044;-79
2023/04/20 04:10:13;;;;;;;8.88;6.85;;;;;;;13.52;100.00;100364.66;5055676;28;20041;-79
2023/04/20 04:12:41;;;;;;;13.95;7.03;;;;;;;13.50;100.00;100360.59;5039210;28;20497;-77
2023/04/20 04:15:10;;;;;;;11.65;7.03;;;;;;;13.56;100.00;100362.94;5055381;28;20051;-78
2023/04/20 04:17:47;;;;;;;9.38;6.80;;;;;;;13.53;100.00;100370.97;5055490;28;20473;-78
2023/04/20 04:20:15;;;;;;;12.27;7.00;;;;;;;13.51;100.00;100376.78;5073334;28;20037;-78
2023/04/20 04:22:43;;;;;;;10.68;6.55;;;;;;;13.63;100.00;100376.28;5039025;28;20040;-78
2023/04/20 04:25:32;;;;;;;13.20;8.02;;;;;;;13.76;100.00;100379.31;5072405;28;20402;-78
2023/04/20 04:28:00;;;;;;;11.07;7.30;;;;;;;13.69;100.00;100386.03;5038863;28;20052;-78
2023/04/20 04:30:30;;;;;;;9.85;6.53;;;;;;;13.64;100.00;100386.13;5055278;28;20040;-79
2023/04/20 04:32:58;;;;;;;11.75;7.03;;;;;;;13.75;100.00;100383.19;5053830;28;20509;-78
2023/04/20 04:35:29;;;;;;;14.20;7.93;;;;;;;13.72;100.00;100384.63;5048123;28;20048;-78
2023/04/20 04:37:57;;;;;;;9.82;6.90;;;;;;;13.84;100.00;100397.88;5052955;28;20049;-78
2023/04/20 04:40:25;;;;;;;11.18;6.65;;;;;;;13.74;100.00;100389.81;5055077;28;20386;-78
2023/04/20 04:42:55;;;;;;;11.07;7.07;;;;;;;13.69;100.00;100386.03;5034241;28;20049;-78
2023/04/20 04:45:24;;;;;;;10.48;6.63;;;;;;;13.57;100.00;100388.50;5049476;28;20068;-78
2023/04/20 04:47:52;;;;;;;10.55;7.15;;;;;;;13.73;100.00;100388.19;5059765;28;20082;-96
2023/04/20 04:50:22;;;;;;;10.57;6.85;;;;;;;14.33;100.00;100386.38;5035332;28;20049;-96
2023/04/20 04:52:52;;;;;;;10.15;6.70;;;;;;;14.42;100.00;100373.47;5054524;28;20054;-96
2023/04/20 04:55:20;;;;;;;11.68;6.28;;;;;;;14.59;100.00;100369.25;5039226;28;20055;-96
2023/04/20 04:57:57;;;;;;;8.18;5.72;;;;;;;14.74;99.14;100355.13;5071735;28;20055;-96
2023/04/20 05:00:39;;;;;;;10.60;7.15;;;;;;;14.89;98.58;100378.72;5072759;23;20508;-95
2023/04/20 05:03:07;;;;;;;16.30;8.02;;;;;;;15.05;98.08;100384.66;4994651;28;20057;-95
2023/04/20 05:05:35;;;;;;;9.13;6.57;;;;;;;14.85;99.23;100397.00;4977837;28;20073;-96
2023/04/20 05:08:04;;;;;;;10.98;7.18;;;;;;;14.90;99.34;100387.78;4982897;28;20043;-95
2023/04/20 05:10:35;;;;;;;12.13;7.45;;;;;;;14.82;100.00;100380.28;4983732;28;20061;-95
2023/04/20 05:13:03;;;;;;;12.63;7.50;;;;;;;14.92;100.00;100385.56;4998629;28;20046;-95
2023/04/20 05:15:31;;;;;;;12.10;7.72;;;;;;;14.94;100.00;100382.47;4983529;28;20037;-96
2023/04/20 05:18:01;;;;;;;11.43;7.40;;;;;;;14.89;100.00;100384.25;5003029;28;20058;-96
2023/04/20 05:20:29;;;;;;;13.55;7.28;;;;;;;14.75;100.00;100380.72;4984717;28;20082;-96
2023/04/20 05:22:57;;;;;;;12.15;7.55;;;;;;;14.68;100.00;100386.66;4985375;28;20499;-96
2023/04/20 05:25:25;;;;;;;14.35;7.20;;;;;;;14.84;100.00;100395.38;4985561;28;20417;-95
2023/04/20 05:27:53;;;;;;;13.07;7.63;;;;;;;14.63;100.00;100384.81;4984226;28;20061;-96
2023/04/20 05:30:23;;;;;;;14.43;8.02;;;;;;;14.68;100.00;100394.91;4969743;28;20054;-96
2023/04/20 05:32:52;;;;;;;12.50;7.80;;;;;;;14.70;100.00;100397.34;4971502;28;20049;-96
2023/04/20 05:38:28;;;;;;;10.05;6.95;;;;;;;14.95;99.38;100395.94;4983060;23;20045;-96
2023/04/20 05:40:56;;;;;;;9.77;6.70;;;;;;;15.01;98.56;100402.94;5002263;28;20053;-96
2023/04/20 05:43:24;;;;;;;9.93;5.82;;;;;;;15.11;95.82;100406.56;4981293;28;20046;-95
2023/04/20 05:45:52;;;;;;;7.10;5.53;;;;;;;15.29;95.25;100404.72;4983388;28;20041;-95
2023/04/20 05:48:20;;;;;;;7.72;5.45;;;;;;;14.86;95.10;100414.38;4982925;28;20054;-93
2023/04/20 05:50:48;;;;;;;8.13;5.50;;;;;;;15.19;94.86;100416.81;5000705;28;20042;-94
2023/04/20 05:53:16;;;;;;;8.85;5.88;;;;;;;15.27;94.05;100413.31;4999438;28;20049;-95
2023/04/20 05:55:44;;;;;;;8.02;5.40;;;;;;;15.25;94.49;100414.78;4999332;28;20056;-94
2023/04/20 05:58:13;;;;;;;5.72;4.95;;;;;;;15.37;93.48;100419.69;4999168;28;20053;-94
2023/04/20 06:00:41;;;;;;;6.90;4.85;;;;;;;15.39;93.79;100425.72;4998951;28;20400;-94
2023/04/20 06:03:09;;;;;;;7.47;4.93;;;;;;;15.60;91.78;100414.94;4998820;28;20054;-96
2023/04/20 06:05:38;;;;;;;6.78;4.63;;;;;;;15.50;91.32;100421.53;5000867;28;20075;-94
2023/04/20 06:08:06;;;;;;;5.47;4.07;;;;;;;15.27;90.57;100418.84;4998768;28;20061;-94
2023/04/20 06:10:34;;;;;;;7.32;4.07;;;;;;;15.19;92.47;100422.34;4999272;28;20403;-94
2023/04/20 06:13:02;;;;;;;5.53;4.30;;;;;;;15.29;90.86;100413.81;5001869;28;20056;-93
2023/04/20 06:15:30;;;;;;;4.20;3.38;;;;;;;15.41;90.28;100410.44;5002962;28;20049;-93
2023/04/20 06:18:00;;;;;;;4.80;3.13;;;;;;;15.62;89.80;100412.66;5019456;28;20045;-92
2023/04/20 06:20:28;;;;;;;4.85;3.58;;;;;;;15.90;86.99;100417.13;4986920;28;20045;-95
2023/04/20 06:22:56;;;;;;;5.22;3.47;;;;;;;15.87;86.63;100423.31;5002726;28;20184;-94
2023/04/20 06:25:24;;;;;;;10.18;3.50;;;;;;;15.74;87.64;100419.53;4986513;28;20049;-93
2023/04/20 06:27:52;;;;;;;9.73;3.63;;;;;;;15.56;87.40;100420.25;5018778;28;20077;-93
2023/04/20 06:30:20;;;;;;;6.13;3.45;;;;;;;15.84;85.90;100431.06;4986146;28;20052;-93
2023/04/20 06:32:48;;;;;;;5.28;3.05;;;;;;;15.84;85.65;100424.75;5002336;28;20052;-92
2023/04/20 06:35:16;;;;;;;6.50;3.13;;;;;;;15.78;84.13;100423.28;5002555;28;20522;-93
2023/04/20 06:37:45;;;;;;;6.50;3.15;;;;;;;15.68;86.03;100427.13;5002428;28;20050;-94
2023/04/20 06:40:13;;;;;;;2.97;2.55;;;;;;;15.78;82.17;100429.59;4988323;28;20058;-93
2023/04/20 06:42:42;;;;;;;4.40;2.67;;;;;;;15.65;82.49;100434.09;4966953;28;20046;-92
2023/04/20 06:45:10;;;;;;;3.75;2.20;;;;;;;15.80;83.30;100435.59;4966716;28;20046;-92
2023/04/20 06:47:38;;;;;;;3.78;2.67;;;;;;;15.88;82.26;100431.25;4982671;28;20050;-93
2023/04/20 06:50:08;;;;;;;3.95;2.10;;;;;;;15.97;81.13;100439.59;4966702;28;20046;-94
2023/04/20 06:52:39;;;;;;;2.17;1.92;;;;;;;15.87;82.54;100434.34;4967462;28;20065;-94
2023/04/20 06:55:08;;;;;;;3.45;2.60;;;;;;;15.69;81.92;100442.56;4966873;28;20064;-94
2023/04/20 06:57:38;;;;;;;3.63;2.55;;;;;;;15.69;81.67;100432.31;4982888;28;20050;-93
2023/04/20 07:00:08;;;;;;;3.72;2.35;;;;;;;15.56;83.89;100438.75;4967056;28;20061;-93
2023/04/20 07:02:47;;;;;;;3.28;2.40;;;;;;;15.89;81.85;100432.88;4982414;28;20049;-93
2023/04/20 07:05:17;;;;;;;5.55;3.00;;;;;;;15.95;81.60;100437.16;4982731;28;20053;-93
2023/04/20 07:07:45;;;;;;;4.50;2.22;;;;;;;15.96;82.72;100437.97;4980213;28;20053;-93
2023/04/20 07:10:14;;;;;;;3.00;2.58;;;;;;;15.88;82.62;100439.53;4976095;28;20057;-94
2023/04/20 07:12:42;;;;;;;2.90;2.70;;;;;;;16.08;81.87;100446.44;4969256;28;20630;-94
2023/04/20 07:15:11;;;;;;;3.53;2.67;;;;;;;15.93;81.91;100439.41;4970770;28;20049;-93
2023/04/20 07:17:39;;;;;;;5.03;2.60;;;;;;;16.05;80.31;100446.28;4965441;28;20050;-93
2023/04/20 07:20:08;;;;;;;3.20;2.75;;;;;;;16.03;80.92;100448.56;4966007;28;20053;-96
2023/04/20 07:22:37;;;;;;;2.97;2.58;;;;;;;15.89;81.20;100448.63;4964467;28;20508;-93
2023/04/20 07:25:08;;;;;;;3.03;2.75;;;;;;;15.93;80.96;100446.91;4981201;28;20038;-93
2023/04/20 07:27:37;;;;;;;3.45;3.15;;;;;;;16.07;80.30;100444.81;4965752;28;20053;-94
2023/04/20 07:30:07;;;;;;;3.45;2.63;;;;;;;15.74;80.81;100447.13;4967105;28;20057;-93
2023/04/20 07:32:37;;;;;;;3.08;2.40;;;;;;;15.94;79.98;100445.75;4965643;28;20050;-95
2023/04/20 07:35:05;;;;;;;2.42;2.22;;;;;;;15.80;79.58;100438.34;4982986;28;20049;-92
2023/04/20 07:37:33;;;;;;;5.10;2.70;;;;;;;15.71;79.67;100440.28;4985355;28;20428;-93
2023/04/20 07:40:05;;;;;;;2.22;2.00;;;;;;;15.82;81.62;100443.56;4998031;28;20061;-94
2023/04/20 07:42:35;;;;;;;2.15;1.95;;;;;;;15.75;79.21;100455.09;4965646;28;20436;-94
2023/04/20 07:45:05;;;;;;;3.60;2.60;;;;;;;15.74;80.18;100458.16;4965688;28;20045;-93
2023/04/20 07:47:34;;;;;;;2.47;2.28;;;;;;;15.96;79.68;100455.34;4969442;28;20057;-94
2023/04/20 07:50:03;;;;;;;3.17;2.10;;;;;;;15.71;80.30;100459.59;4965429;28;20046;-93
2023/04/20 07:52:33;;;;;;;3.72;2.60;;;;;;;15.94;79.63;100459.56;4970153;28;20053;-96
2023/04/20 07:55:01;;;;;;;3.30;2.85;;;;;;;15.88;78.86;100463.56;4981496;28;20056;-95
2023/04/20 07:57:31;;;;;;;3.78;2.40;;;;;;;16.01;79.15;100467.34;4969358;28;20480;-95
2023/04/20 07:59:59;;;;;;;4.13;2.50;;;;;;;16.14;78.76;100454.56;4981345;28;20069;-92
2023/04/20 08:02:27;;;;;;;3.03;2.15;;;;;;;16.22;77.33;100462.06;4981432;28;20050;-94
2023/04/20 08:04:55;;;;;;;2.95;2.38;;;;;;;16.28;79.05;100460.75;4967573;28;20065;-94
2023/04/20 08:07:24;;;;;;;7.47;2.50;;;;;;;16.04;77.83;100464.75;4981293;28;20045;-94
2023/04/20 08:09:51;;;;;;;4.72;2.60;;;;;;;16.17;75.79;100465.78;4966217;28;20042;-94
2023/04/20 08:12:20;;;;;;;4.63;2.65;;;;;;;15.90;77.30;100470.41;4965295;28;20374;-94
2023/04/20 08:14:48;;;;;;;2.60;2.40;;;;;;;16.09;75.44;100472.91;4980891;28;20045;-95
2023/04/20 08:17:16;;;;;;;3.50;2.20;;;;;;;15.97;76.12;100456.97;4981815;28;20390;-94
2023/04/20 08:19:43;;;;;;;4.18;2.42;;;;;;;16.41;74.15;100467.28;4966305;28;20053;-92
2023/04/20 08:22:12;;;;;;;5.28;2.70;;;;;;;16.51;74.83;100463.41;4982520;28;20053;-94
2023/04/20 08:24:40;;;;;;;3.05;2.55;;;;;;;16.46;74.17;100460.78;4981314;28;20046;-93
2023/04/20 08:27:08;;;;;;;2.10;1.90;;;;;;;16.36;76.26;100450.88;4982702;28;20041;-95
2023/04/20 08:29:37;;;;;;;4.72;2.22;;;;;;;16.28;75.32;100458.00;4964899;28;20050;-94
2023/04/20 08:32:07;;;;;;;3.30;2.40;;;;;;;16.40;75.75;100468.44;4965748;28;20046;-96
2023/04/20 08:34:36;;;;;;;2.20;2.00;;;;;;;16.75;74.28;100462.13;4965050;28;20049;-96
2023/04/20 08:37:04;;;;;;;2.97;2.28;;;;;;;16.87;71.83;100459.50;4965415;28;20404;-94
2023/04/20 08:39:33;;;;;;;4.18;2.80;;;;;;;16.94;72.65;100467.31;4969335;28;20061;-94
2023/04/20 08:42:02;;;;;;;3.70;2.20;;;;;;;17.24;71.79;100461.13;4996583;28;20054;-94
2023/04/20 08:44:30;;;;;;;2.28;2.08;;;;;;;16.88;71.10;100474.97;4980763;28;20053;-92
2023/04/20 08:46:59;;;;;;;3.30;2.33;;;;;;;17.19;70.48;100470.41;4980837;28;20500;-94
2023/04/20 08:49:28;;;;;;;2.30;2.00;;;;;;;17.05;71.05;100470.59;4981007;28;20061;-96
2023/04/20 08:51:56;;;;;;;2.25;2.00;;;;;;;16.90;71.44;100464.41;4980534;28;20053;-94
2023/04/20 08:54:24;;;;;;;6.10;2.60;;;;;;;16.48;72.60;100464.06;4980265;28;20045;-93
2023/04/20 08:56:53;;;;;;;3.30;2.20;;;;;;;16.57;71.91;100450.25;4979567;28;20539;-91
2023/04/20 08:59:21;;;;;;;2.75;2.40;;;;;;;16.37;71.68;100447.81;5012329;28;20105;-91
2023/04/20 09:01:49;;;;;;;3.08;2.17;;;;;;;16.58;71.69;100451.88;4997295;28;20041;-92
2023/04/20 09:04:22;;;;;;;2.33;2.05;;;;;;;16.49;70.44;100449.94;4979859;28;20050;-91
2023/04/20 09:06:54;;;;;;;2.75;2.10;;;;;;;16.82;70.40;100450.59;4979447;28;20054;-93
2023/04/20 09:09:24;;;;;;;2.88;2.20;;;;;;;16.93;70.19;100462.94;4980115;28;20485;-94
2023/04/20 09:12:03;;;;;;;2.45;2.22;;;;;;;16.91;70.34;100457.72;4959588;28;20039;-93
2023/04/20 09:14:45;;;;;;;2.33;1.98;;;;;;;16.73;70.60;100454.19;4991808;28;20516;-91
2023/04/20 09:17:16;;;;;;;3.10;1.98;;;;;;;16.79;69.17;100454.81;4959122;28;20050;-92
2023/04/20 09:19:45;;;;;;;3.55;2.20;;;;;;;16.89;69.53;100445.38;4992694;28;20076;-94
2023/04/20 09:22:13;;;;;;;3.80;2.45;;;;;;;17.01;69.73;100450.25;4960182;28;20046;-91
2023/04/20 09:24:41;;;;;;;3.38;1.90;;;;;;;16.86;70.98;100446.84;4960280;28;20425;-94
2023/04/20 09:27:17;;;;;;;4.55;2.58;;;;;;;16.83;72.36;100444.75;4976057;28;20519;-91
2023/04/20 09:29:58;;;;;;;3.95;2.33;;;;;;;17.02;75.19;100443.59;4992668;28;20058;-91
2023/04/20 09:32:27;;;;;;;2.83;2.53;;;;;;;17.11;73.28;100436.09;4992656;28;20482;-96
2023/04/20 09:34:56;;;;;;;6.25;2.63;;;;;;;17.16;75.81;100438.69;4960334;28;20050;-92
2023/04/20 09:37:24;;;;;;;2.92;2.15;;;;;;;17.45;73.27;100448.22;4977478;28;20057;-94
2023/04/20 09:39:58;;;;;;;3.05;2.10;;;;;;;17.73;71.64;100447.81;4971874;28;20049;-91
2023/04/20 09:42:27;;;;;;;2.83;2.22;;;;;;;17.80;70.80;100444.50;4996102;28;20385;-91
2023/04/20 09:44:56;;;;;;;3.17;2.20;;;;;;;17.03;71.24;100461.81;4995356;28;20081;-94
2023/04/20 09:47:26;;;;;;;3.03;2.42;;;;;;;16.69;74.84;100455.97;4995544;28;20045;-96
2023/04/20 09:49:57;;;;;;;2.40;2.20;;;;;;;16.35;73.86;100458.38;4979709;28;20053;-94
2023/04/20 09:52:37;;;;;;;3.85;2.20;;;;;;;16.66;73.05;100451.88;4983248;28;20058;-95
2023/04/20 09:55:06;;;;;;;5.57;2.30;;;;;;;16.78;72.70;100461.47;4979742;28;20050;-94
2023/04/20 09:57:35;;;;;;;3.22;2.22;;;;;;;17.01;72.03;100458.56;4980532;28;20050;-96
2023/04/20 10:00:05;;;;;;;2.22;2.03;;;;;;;16.93;70.92;100457.41;4980678;28;20050;-95
2023/04/20 10:02:36;;;;;;;2.42;2.22;;;;;;;16.69;72.79;100468.94;4980501;28;20046;-96
2023/04/20 10:05:06;;;;;;;2.38;2.17;;;;;;;16.43;73.45;100465.00;4979641;28;20076;-93
2023/04/20 10:07:34;;;;;;;2.65;2.45;;;;;;;16.57;74.06;100467.63;5012534;28;20485;-94
2023/04/20 10:10:10;;;;;;;3.60;2.38;;;;;;;16.38;75.37;100468.75;4979175;28;20485;-92
2023/04/20 10:12:55;;;;;;;4.80;2.50;;;;;;;16.43;74.07;100472.50;4963806;28;20054;-92
2023/04/20 10:15:35;;;;;;;3.03;2.53;;;;;;;16.52;72.57;100474.13;4979660;28;20041;-93
2023/04/20 10:18:17;;;;;;;4.38;2.33;;;;;;;16.48;72.15;100470.38;4978782;28;20515;-91
2023/04/20 10:20:45;;;;;;;3.00;2.70;;;;;;;16.76;72.26;100480.31;4998429;28;20057;-91
2023/04/20 10:23:15;;;;;;;4.88;2.80;;;;;;;16.28;72.91;100482.06;4977257;28;20477;-89
2023/04/20 10:25:55;;;;;;;3.22;2.70;;;;;;;16.73;72.27;100480.97;4992902;28;20057;-89
2023/04/20 10:28:23;;;;;;;3.72;2.83;;;;;;;16.25;73.15;100473.28;5010109;28;20054;-90
2023/04/20 10:30:52;;;;;;;4.32;3.10;;;;;;;16.43;73.24;100484.34;4994166;28;20046;-90
2023/04/20 10:33:21;;;;;;;3.92;3.13;;;;;;;16.26;73.55;100476.84;4978616;28;20053;-88
2023/04/20 10:35:53;;;;;;;4.53;3.58;;;;;;;16.15;74.59;100475.53;5011906;28;20049;-90
2023/04/20 10:38:32;;;;;;;5.55;3.40;;;;;;;16.20;73.65;100486.41;4994558;28;20038;-89
2023/04/20 10:41:07;;;;;;;4.35;3.35;;;;;;;16.39;73.51;100483.38;4958998;28;20516;-90
2023/04/20 10:43:37;;;;;;;4.63;3.65;;;;;;;16.16;73.78;100479.91;4991002;28;20046;-90
2023/04/20 10:46:32;;;;;;;3.50;3.17;;;;;;;15.78;74.64;100482.03;4958500;28;20073;-78
2023/04/20 10:49:00;;;;;;;5.43;4.03;;;;;;;14.93;79.47;100485.53;4989857;28;20061;-76
2023/04/20 10:51:28;;;;;;;5.05;4.20;;;;;;;14.77;82.10;100485.91;4991905;28;20046;-76
2023/04/20 10:54:05;;;;;;;8.32;5.25;;;;;;;14.70;83.17;100493.75;4974160;28;20058;-76
2023/04/20 10:56:52;;;;;;;6.63;4.63;;;;;;;14.57;86.80;100489.91;4991837;28;20046;-77
2023/04/20 10:59:23;;;;;;;6.93;4.88;;;;;;;14.64;86.77;100501.31;4995050;28;20497;-76
2023/04/20 11:01:52;;;;;;;7.28;4.80;;;;;;;14.23;88.81;100484.53;4995303;28;20054;-76
2023/04/20 11:04:31;;;;;;;7.70;4.82;;;;;;;14.02;94.54;100475.09;4977107;28;20054;-76
2023/04/20 11:07:07;;;;;;;8.50;5.10;;;;;;;13.98;96.75;100472.94;4995392;28;20404;-76
2023/04/20 11:09:37;;;;;;;7.55;5.50;;;;;;;13.59;98.93;100478.91;4995269;28;20042;-76
2023/04/20 11:12:07;;;;;;;7.63;5.45;;;;;;;13.53;100.00;100469.94;4995221;28;20050;-76
2023/04/20 11:14:37;;;;;;;7.80;4.95;;;;;;;13.49;100.00;100463.44;4995151;28;20043;-77
2023/04/20 11:17:05;;;;;;;7.28;5.65;;;;;;;13.55;100.00;100456.72;4995157;28;20046;-76
2023/04/20 11:19:35;;;;;;;8.32;5.82;;;;;;;13.34;100.00;100448.00;4995058;28;20057;-76
2023/04/20 11:22:05;;;;;;;8.68;5.90;;;;;;;13.55;100.00;100445.72;4995038;28;20046;-77
2023/04/20 11:24:33;;;;;;;9.90;5.88;;;;;;;13.82;100.00;100446.84;4994816;28;20042;-77
2023/04/20 11:27:03;;;;;;;6.47;5.68;;;;;;;13.75;100.00;100444.53;4995052;28;20405;-76
2023/04/20 11:29:34;;;;;;;8.77;5.68;;;;;;;13.75;100.00;100444.53;4994875;28;20046;-77
2023/04/20 11:32:10;;;;;;;9.30;6.05;;;;;;;14.09;100.00;100447.97;4994801;28;20497;-76
2023/04/20 11:34:38;;;;;;;11.55;6.03;;;;;;;14.12;100.00;100441.84;4994717;28;20055;-77
2023/04/20 11:37:09;;;;;;;9.13;6.05;;;;;;;14.56;100.00;100444.22;4994628;28;20053;-76